»·PEaware :: JUS326 KELP-KPHX

JUS326 :: KELP-KPHX

FLIGHT INFORMATION

Flight Status: Arrived
Operator:
USA Jet
More flights by this operator :: More flights under this callsign
Pilot: Erik S. (3779)
Aircraft: BOEING 737-300
(B733)
More flights by this aircraft type
Origin: KELP El Paso Intl
United States
Destination: KPHX Phoenix Sky Harbor Intl
United States
More flights between these airports :: More routes between these airports
Route: ATKNN5 ATKNN DRRVR PINNG1
File this flight plan on PilotEdge
Remarks:
Altitude:
(Current/Filed)
30,000ft
Speed:
(Current/Filed)
400kts
Departed: 15-Nov-17 11:18 AM
Arrived: 15-Nov-17 12:18 PM
Distance/Time
Traveled:
301nm/1:00
Distance/Time
To Go:
Arrived

Flight Plot

Page will automatically refresh every two minutes.

Flight plan parsing failed; only flown route is shown


Map Options




Map Legend


Flown Route
Filed Route
Departure Airport
Arrival Airport
Navaid (VOR, NDB)
Fix

Horizontal Profiles

Position Reports

Time Latitude Longitude Heading Altitude Ground
Speed
15-Nov-17 11:11 31.815338 -106.371588 140 3965ft 0kts
15-Nov-17 11:12 31.815338 -106.371588 140 3965ft 0kts
15-Nov-17 11:13 31.815338 -106.371588 140 3965ft 0kts
15-Nov-17 11:14 31.815338 -106.371588 140 3965ft 0kts
15-Nov-17 11:15 31.815338 -106.371588 140 3965ft 0kts
15-Nov-17 11:16 31.815338 -106.371588 140 3965ft 0kts
15-Nov-17 11:17 31.815338 -106.371588 140 3965ft 0kts
15-Nov-17 11:18 31.815338 -106.371588 140 3965ft 0kts
15-Nov-17 11:19 31.815247 -106.371386 95 3965ft 3kts
15-Nov-17 11:20 31.816933 -106.372934 353 3965ft 13kts
15-Nov-17 11:21 31.819105 -106.370118 51 3965ft 11kts
15-Nov-17 11:22 31.822017 -106.369370 319 3965ft 15kts
15-Nov-17 11:23 31.811730 -106.385447 231 3966ft 166kts
15-Nov-17 11:24 31.780949 -106.433220 237 6388ft 188kts
15-Nov-17 11:25 31.762821 -106.497635 280 8142ft 237kts
15-Nov-17 11:26 31.799025 -106.571342 303 10248ft 284kts
15-Nov-17 11:27 31.820282 -106.672097 279 12146ft 338kts
15-Nov-17 11:28 31.836147 -106.781799 279 15103ft 344kts
15-Nov-17 11:29 31.852308 -106.893310 279 17714ft 351kts
15-Nov-17 11:30 31.868761 -107.007497 278 20055ft 359kts
15-Nov-17 11:31 31.885525 -107.123944 278 22232ft 365kts
15-Nov-17 11:32 31.902703 -107.242447 278 24233ft 371kts
15-Nov-17 11:33 31.919747 -107.363007 278 26050ft 376kts
15-Nov-17 11:34 31.936624 -107.483337 278 28110ft 370kts
15-Nov-17 11:35 31.952936 -107.600500 279 30088ft 361kts
15-Nov-17 11:36 31.969088 -107.717338 279 30252ft 359kts
15-Nov-17 11:37 31.985339 -107.835699 279 30265ft 381kts
15-Nov-17 11:38 32.002228 -107.959610 279 30254ft 382kts
15-Nov-17 11:39 32.018908 -108.082909 279 30257ft 382kts
15-Nov-17 11:40 32.035829 -108.205961 279 30261ft 382kts
15-Nov-17 11:41 32.052617 -108.326874 279 30273ft 382kts
15-Nov-17 11:42 32.068993 -108.450320 278 30287ft 382kts
15-Nov-17 11:43 32.085155 -108.574177 278 30292ft 382kts
15-Nov-17 11:44 32.101151 -108.697766 278 30292ft 382kts
15-Nov-17 11:45 32.117065 -108.821705 278 30285ft 382kts
15-Nov-17 11:46 32.132830 -108.945461 278 30281ft 382kts
15-Nov-17 11:47 32.148450 -109.069061 278 30262ft 382kts
15-Nov-17 11:48 32.164356 -109.192939 277 30228ft 382kts
15-Nov-17 11:49 32.181383 -109.316688 282 30218ft 382kts
15-Nov-17 11:50 32.207192 -109.438102 282 30209ft 382kts
15-Nov-17 11:51 32.233013 -109.560183 282 30195ft 382kts
15-Nov-17 11:52 32.258553 -109.681578 282 30184ft 382kts
15-Nov-17 11:53 32.284119 -109.803732 282 30188ft 382kts
15-Nov-17 11:54 32.309430 -109.925286 282 30187ft 382kts
15-Nov-17 11:55 32.334733 -110.047434 282 30160ft 382kts
15-Nov-17 11:56 32.360000 -110.168442 282 30142ft 383kts
15-Nov-17 11:57 32.385159 -110.290578 282 30139ft 382kts
15-Nov-17 11:58 32.410154 -110.413129 282 30129ft 383kts
15-Nov-17 11:59 32.435083 -110.535938 282 28708ft 381kts
15-Nov-17 12:00 32.458960 -110.654239 281 26791ft 366kts
15-Nov-17 12:01 32.499346 -110.763454 300 24890ft 369kts
15-Nov-17 12:02 32.556098 -110.862329 300 24105ft 366kts
15-Nov-17 12:03 32.612274 -110.961170 300 23915ft 371kts
15-Nov-17 12:04 32.669668 -111.061995 300 21406ft 361kts
15-Nov-17 12:05 32.723591 -111.156529 300 19559ft 341kts
15-Nov-17 12:06 32.776708 -111.247159 301 17584ft 329kts
15-Nov-17 12:07 32.826848 -111.334529 300 16024ft 309kts
15-Nov-17 12:08 32.874556 -111.419099 301 15005ft 322kts
15-Nov-17 12:09 32.926179 -111.509032 304 14020ft 332kts
15-Nov-17 12:10 32.980045 -111.591250 305 12985ft 299kts
15-Nov-17 12:11 33.030201 -111.666528 306 12060ft 289kts
15-Nov-17 12:12 33.080312 -111.741740 306 12041ft 291kts
15-Nov-17 12:13 33.130157 -111.816721 306 11492ft 286kts
15-Nov-17 12:14 33.179068 -111.890366 307 9585ft 277kts
15-Nov-17 12:15 33.225868 -111.960960 308 8319ft 256kts
15-Nov-17 12:16 33.266969 -112.024491 304 7823ft 241kts
15-Nov-17 12:17 33.308176 -112.087384 306 6907ft 229kts
15-Nov-17 12:18 33.357738 -112.134370 346 5447ft 227kts
15-Nov-17 12:19 33.414924 -112.135738 11 4569ft 170kts
15-Nov-17 12:20 33.428306 -112.092385 100 2693ft 150kts
15-Nov-17 12:21 33.428862 -112.047487 88 1412ft 139kts
15-Nov-17 12:22 33.428842 -112.007192 93 1142ft 58kts
15-Nov-17 12:23 33.427793 -112.008513 269 1142ft 17kts
15-Nov-17 12:24 33.427784 -112.015638 270 1142ft 26kts
15-Nov-17 12:25 33.425691 -112.017966 178 1142ft 0kts
15-Nov-17 12:26 33.425691 -112.017966 178 1142ft 0kts
15-Nov-17 12:27 33.425691 -112.017966 178 1142ft 0kts
15-Nov-17 12:28 33.425691 -112.017966 178 1142ft 0kts
15-Nov-17 12:29 33.425691 -112.017966 178 1142ft 0kts
15-Nov-17 12:30 33.425691 -112.017966 178 1142ft 0kts
15-Nov-17 12:31 33.425691 -112.017966 178 1142ft 0kts

Navigation Log

Ident Type
Flight plan parsing failed, navigation log unavailable